Time;durP1;ratioP1;P1;durP2;ratioP2;P2;SDS_P1;SDS_P2;PMS_P1;PMS_P2;Temp;Humidity;BMP_temperature;BMP_pressure;BME280_temperature;BME280_humidity;BME280_pressure;Samples;Min_cycle;Max_cycle;Signal;HPM_P1;HPM_P2
2022/06/23 00:00:24;;;;;;;;;19.00;18.50;;;;;21.40;68.50;100191.34;5100154;27;46443;-76
2022/06/23 00:02:50;;;;;;;;;20.75;20.75;;;;;21.39;68.58;100178.91;5096273;27;45695;-77
2022/06/23 00:05:20;;;;;;;;;23.00;21.75;;;;;21.36;68.76;100176.41;5098059;27;45371;-78
2022/06/23 00:07:52;;;;;;;;;20.00;18.25;;;;;21.34;68.64;100170.28;5098924;27;45470;-78
2022/06/23 00:10:32;;;;;;;;;15.25;15.00;;;;;21.35;69.20;100166.63;5083631;27;45553;-78
2022/06/23 00:12:58;;;;;;;;;22.25;17.00;;;;;21.33;68.90;100163.19;5107870;27;44936;-78
2022/06/23 00:15:28;;;;;;;;;20.25;19.00;;;;;21.33;69.18;100168.56;5099333;27;46100;-77
2022/06/23 00:18:01;;;;;;;;;19.75;18.25;;;;;21.28;69.28;100163.50;5097169;27;45577;-77
2022/06/23 00:20:33;;;;;;;;;24.00;21.50;;;;;21.17;69.43;100154.53;5096874;27;46385;-77
2022/06/23 00:23:10;;;;;;;;;20.00;20.00;;;;;21.09;70.20;100145.16;5097243;27;45563;-78
2022/06/23 00:25:47;;;;;;;;;21.00;17.25;;;;;21.09;70.65;100166.66;5099167;27;45347;-81
2022/06/23 00:28:18;;;;;;;;;20.00;18.75;;;;;21.03;71.08;100177.84;5098095;27;45269;-81
2022/06/23 00:30:44;;;;;;;;;22.75;21.25;;;;;20.98;71.43;100174.59;5096725;27;46444;-78
2022/06/23 00:33:19;;;;;;;;;20.00;20.00;;;;;20.96;72.15;100168.47;5098174;27;45343;-78
2022/06/23 00:35:47;;;;;;;;;17.25;17.25;;;;;20.88;72.84;100170.84;5097953;27;45519;-77
2022/06/23 00:38:23;;;;;;;;;18.75;18.75;;;;;20.84;73.21;100166.66;5098423;27;45466;-77
2022/06/23 00:40:49;;;;;;;;;23.00;19.25;;;;;20.81;74.42;100177.59;5095104;27;46530;-77
2022/06/23 00:43:17;;;;;;;;;23.00;21.25;;;;;20.79;74.39;100160.75;5099869;27;45403;-81
2022/06/23 00:45:50;;;;;;;;;21.50;19.25;;;;;20.80;74.51;100167.81;5099484;27;45529;-77
2022/06/23 00:48:24;;;;;;;;;20.25;18.75;;;;;20.79;74.62;100163.44;5096465;27;45397;-77
2022/06/23 00:51:17;;;;;;;;;13.50;13.50;;;;;20.81;74.93;100166.88;5096677;27;46284;-78
2022/06/23 00:53:58;;;;;;;;;19.25;18.75;;;;;20.75;75.22;100158.25;5087807;27;45490;-77
2022/06/23 00:56:39;;;;;;;;;23.25;21.00;;;;;20.80;75.52;100160.66;5096369;27;45472;-78
2022/06/23 00:59:34;;;;;;;;;19.75;18.50;;;;;20.80;75.73;100155.28;5092844;27;45562;-78
2022/06/23 01:02:11;;;;;;;;;22.50;21.25;;;;;20.77;76.26;100150.13;5082051;27;47591;-78
2022/06/23 01:04:57;;;;;;;;;21.50;20.00;;;;;20.65;77.00;100143.78;5096220;27;45530;-78
2022/06/23 01:07:41;;;;;;;;;20.75;17.50;;;;;20.67;77.54;100149.88;5097795;27;45490;-78
2022/06/23 01:10:48;;;;;;;;;18.00;17.00;;;;;20.59;78.10;100139.63;5097276;27;45568;-78
2022/06/23 01:13:31;;;;;;;;;21.00;21.00;;;;;20.59;78.46;100136.09;5038170;28;47175;-77
2022/06/23 01:16:08;;;;;;;;;20.00;18.00;;;;;20.57;78.36;100138.03;5055979;28;45443;-82
2022/06/23 01:18:42;;;;;;;;;20.00;19.75;;;;;20.59;78.43;100146.84;5058517;28;45500;-83
2022/06/23 01:21:24;;;;;;;;;22.00;19.75;;;;;20.61;78.64;100152.97;5053702;28;45602;-81
2022/06/23 01:24:16;;;;;;;;;28.00;21.50;;;;;20.61;78.52;100154.78;5055168;28;45627;-82
2022/06/23 01:26:49;;;;;;;;;19.75;19.50;;;;;20.61;78.82;100150.28;5055067;28;45556;-81
2022/06/23 01:29:53;;;;;;;;;17.50;16.25;;;;;20.54;78.68;100130.19;5055685;28;45478;-82
2022/06/23 01:32:21;;;;;;;;;20.75;19.50;;;;;20.63;78.18;100142.97;5000173;28;45494;-82
2022/06/23 01:34:52;;;;;;;;;18.25;18.25;;;;;20.63;77.86;100148.34;5016552;28;46720;-80
2022/06/23 01:37:26;;;;;;;;;25.50;21.00;;;;;20.62;77.34;100146.63;5015172;28;45416;-82
2022/06/23 01:40:23;;;;;;;;;25.50;23.50;;;;;20.64;77.41;100144.69;5015171;28;45459;-82
2022/06/23 01:43:15;;;;;;;;;20.50;19.25;;;;;20.66;76.99;100140.09;5010554;28;45518;-81
2022/06/23 01:45:51;;;;;;;;;27.00;20.00;;;;;20.53;76.79;100115.06;5013742;28;46455;-82
2022/06/23 01:48:51;;;;;;;;;22.75;22.75;;;;;20.70;76.46;100140.75;5034893;28;45464;-77
2022/06/23 01:51:19;;;;;;;;;22.50;21.00;;;;;20.72;76.66;100139.66;5033272;28;45615;-82
2022/06/23 01:53:46;;;;;;;;;26.50;21.75;;;;;20.65;77.11;100132.13;5034515;28;45671;-78
2022/06/23 01:56:33;;;;;;;;;28.00;27.00;;;;;20.69;77.35;100147.09;5032876;28;46276;-78
2022/06/23 01:59:36;;;;;;;;;25.25;20.25;;;;;20.68;77.91;100145.34;5034180;28;45543;-77
2022/06/23 02:02:10;;;;;;;;;24.75;23.75;;;;;20.70;77.03;100146.13;5033170;28;45527;-77
2022/06/23 02:05:01;;;;;;;;;23.50;23.50;;;;;20.65;76.62;100135.72;5034180;28;45340;-78
2022/06/23 02:07:43;;;;;;;;;30.50;25.50;;;;;20.74;75.91;100139.56;5057033;27;45332;-77
2022/06/23 02:10:20;;;;;;;;;21.25;21.25;;;;;20.73;75.98;100138.72;5109605;27;45316;-77
2022/06/23 02:12:59;;;;;;;;;24.25;22.50;;;;;20.74;75.60;100143.13;5102968;27;45350;-82
2022/06/23 02:15:35;;;;;;;;;25.25;23.25;;;;;20.72;75.76;100134.31;5099710;27;45298;-81
2022/06/23 02:18:13;;;;;;;;;23.75;22.00;;;;;20.72;75.66;100133.44;5099324;27;45572;-81
2022/06/23 02:20:42;;;;;;;;;21.25;20.00;;;;;20.73;75.70;100133.34;5098042;27;45430;-82
2022/06/23 02:23:10;;;;;;;;;29.75;29.00;;;;;20.73;75.77;100138.72;5077853;27;45359;-79
2022/06/23 02:25:42;;;;;;;;;25.00;21.00;;;;;20.65;76.42;100124.97;5076061;27;45348;-78
2022/06/23 02:28:14;;;;;;;;;21.25;20.25;;;;;20.61;76.99;100118.06;5075311;28;48393;-81
2022/06/23 02:30:50;;;;;;;;;18.75;18.00;;;;;20.71;76.80;100134.41;5087823;27;45475;-82
2022/06/23 02:33:30;;;;;;;;;24.00;21.25;;;;;20.69;76.80;100129.16;5101104;27;45398;-81
2022/06/23 02:35:58;;;;;;;;;19.25;17.00;;;;;20.69;76.95;100126.47;5101724;27;45217;-81
2022/06/23 02:38:34;;;;;;;;;17.00;17.00;;;;;20.66;77.08;100121.31;5114945;27;45401;-82
2022/06/23 02:41:02;;;;;;;;;18.00;18.00;;;;;20.69;77.53;100126.47;5104163;27;45383;-82
2022/06/23 02:43:37;;;;;;;;;13.00;13.00;;;;;20.64;77.71;100120.53;5099366;27;45382;-81
2022/06/23 02:46:02;;;;;;;;;13.00;10.75;;;;;20.68;77.56;100124.75;5096789;27;45476;-82
2022/06/23 02:48:46;;;;;;;;;7.75;7.75;;;;;20.58;77.65;100107.53;5097687;27;46327;-80
2022/06/23 02:51:30;;;;;;;;;5.75;5.75;;;;;20.62;77.31;100130.53;5097275;27;45249;-81
2022/06/23 02:54:07;;;;;;;;;4.00;4.00;;;;;20.59;77.13;100125.38;5092107;27;45346;-77
2022/06/23 02:56:50;;;;;;;;;7.00;7.00;;;;;20.60;77.18;100129.75;5098705;27;45602;-81
2022/06/23 02:59:30;;;;;;;;;4.00;2.00;;;;;20.53;76.59;100137.38;5086944;27;45431;-78
2022/06/23 03:02:21;;;;;;;;;3.75;3.75;;;;;20.38;76.21;100139.28;5097416;27;45606;-78
2022/06/23 03:04:57;;;;;;;;;3.00;3.00;;;;;20.29;76.50;100142.59;5096430;27;45350;-78
2022/06/23 03:07:46;;;;;;;;;2.50;2.50;;;;;20.26;75.94;100144.63;5098179;27;45414;-77
2022/06/23 03:10:30;;;;;;;;;2.75;2.75;;;;;20.27;75.49;100141.84;5099114;27;46236;-81
2022/06/23 03:13:07;;;;;;;;;7.00;3.25;;;;;20.14;75.50;100124.84;5098182;27;45293;-82
2022/06/23 03:15:40;;;;;;;;;1.50;1.50;;;;;20.29;75.22;100147.09;5098965;27;45489;-84
2022/06/23 03:18:21;;;;;;;;;1.00;1.00;;;;;20.24;74.97;100142.06;5099453;27;45336;-81
2022/06/23 03:21:16;;;;;;;;;1.25;1.00;;;;;20.17;74.86;100143.41;5080967;27;45791;-82
2022/06/23 03:23:55;;;;;;;;;1.00;1.00;;;;;20.04;74.99;100133.50;5106895;27;45409;-81
2022/06/23 03:26:25;;;;;;;;;2.00;2.00;;;;;20.10;74.86;100144.78;5100380;27;45507;-83
2022/06/23 03:29:11;;;;;;;;;3.00;2.00;;;;;20.14;74.84;100155.22;5099976;27;45494;-83
2022/06/23 03:31:40;;;;;;;;;3.25;2.50;;;;;20.10;74.69;100158.19;5095844;27;45414;-78
2022/06/23 03:34:43;;;;;;;;;2.50;2.50;;;;;19.99;75.05;100156.22;5097878;27;45435;-76
2022/06/23 03:37:16;;;;;;;;;1.75;1.75;;;;;19.95;75.35;100155.59;5084234;27;45666;-78
2022/06/23 03:43:05;;;;;;;;;4.00;2.00;;;;;19.93;75.11;100153.94;5093941;27;45501;-77
2022/06/23 03:45:54;;;;;;;;;1.25;1.25;;;;;19.92;75.19;100163.81;5097328;27;45504;-78
2022/06/23 03:48:41;;;;;;;;;3.00;3.00;;;;;19.93;75.09;100178.94;5092274;27;45503;-78
2022/06/23 03:51:20;;;;;;;;;3.50;3.50;;;;;19.89;75.19;100180.13;5097630;27;45391;-78
2022/06/23 03:54:07;;;;;;;;;2.00;0.00;;;;;19.89;74.53;100182.81;5092854;27;46781;-78
2022/06/23 03:56:44;;;;;;;;;1.00;1.00;;;;;19.90;74.56;100181.81;5097439;27;45385;-78
2022/06/23 03:59:41;;;;;;;;;2.00;2.00;;;;;19.94;74.49;100183.34;5077829;27;45389;-78
2022/06/23 04:02:17;;;;;;;;;1.00;1.00;;;;;19.88;74.50;100179.25;5098511;27;45540;-81
2022/06/23 04:05:09;;;;;;;;;3.00;3.00;;;;;19.97;74.48;100187.66;5101451;27;45406;-82
2022/06/23 04:08:03;;;;;;;;;4.50;2.75;;;;;19.90;74.68;100181.81;5111544;27;44810;-81
2022/06/23 04:10:33;;;;;;;;;4.00;2.50;;;;;19.97;74.44;100199.25;5102760;27;45314;-82
2022/06/23 04:13:11;;;;;;;;;4.50;2.00;;;;;19.87;74.70;100187.38;5100628;27;45580;-80
2022/06/23 04:15:41;;;;;;;;;2.00;2.00;;;;;19.90;74.57;100178.28;5096859;27;46296;-81
2022/06/23 04:18:12;;;;;;;;;3.75;3.00;;;;;19.96;74.40;100199.34;5098329;27;45329;-77
2022/06/23 04:20:47;;;;;;;;;3.00;3.00;;;;;19.84;74.47;100184.91;5080111;27;45573;-78
2022/06/23 04:23:25;;;;;;;;;3.50;2.25;;;;;20.01;74.67;100211.50;5097715;27;45434;-78
2022/06/23 04:26:11;;;;;;;;;3.00;3.00;;;;;19.91;74.49;100194.28;5097584;27;46580;-77
2022/06/23 04:29:04;;;;;;;;;6.75;3.50;;;;;20.01;74.32;100216.84;5097486;27;45430;-79
2022/06/23 04:31:33;;;;;;;;;3.25;3.00;;;;;20.10;74.02;100222.56;5097084;27;45362;-78
2022/06/23 04:34:00;;;;;;;;;1.75;1.75;;;;;20.11;73.84;100222.47;5094112;27;45465;-78
2022/06/23 04:36:29;;;;;;;;;3.50;3.00;;;;;20.11;73.93;100221.63;5095262;27;46569;-77
2022/06/23 04:38:55;;;;;;;;;1.50;1.50;;;;;20.10;74.05;100219.88;5095125;27;45524;-78
2022/06/23 04:41:27;;;;;;;;;3.75;3.50;;;;;20.10;73.91;100217.22;5094085;27;45522;-78
2022/06/23 04:44:05;;;;;;;;;4.25;3.00;;;;;20.08;73.94;100222.66;5095775;27;45634;-78
2022/06/23 04:46:40;;;;;;;;;1.75;1.75;;;;;20.03;73.98;100197.97;5075559;27;46447;-76
2022/06/23 04:49:49;;;;;;;;;2.00;2.00;;;;;20.18;73.42;100217.59;5086611;27;45276;-78
2022/06/23 04:52:22;;;;;;;;;3.25;2.00;;;;;20.22;73.61;100227.13;5081482;27;45396;-78
2022/06/23 04:55:26;;;;;;;;;1.00;1.00;;;;;20.28;73.00;100229.41;5094441;27;45385;-78
2022/06/23 04:57:59;;;;;;;;;2.25;2.25;;;;;20.32;72.87;100225.56;5072966;28;45474;-78
2022/06/23 05:00:26;;;;;;;;;2.00;2.00;;;;;20.22;72.66;100208.34;5070312;28;45497;-78
2022/06/23 05:03:06;;;;;;;;;2.00;1.00;;;;;20.37;72.52;100228.78;5063336;28;45480;-82
2022/06/23 05:05:36;;;;;;;;;2.00;2.00;;;;;20.34;72.18;100217.41;5073835;28;45516;-81
2022/06/23 05:08:08;;;;;;;;;2.75;2.75;;;;;20.40;72.27;100230.41;5074692;28;46437;-78
2022/06/23 05:11:14;;;;;;;;;2.00;2.00;;;;;20.46;72.30;100235.38;5073454;28;45387;-82
2022/06/23 05:13:48;;;;;;;;;2.00;2.00;;;;;20.38;72.19;100219.78;5056635;28;45362;-81
2022/06/23 05:16:25;;;;;;;;;2.00;2.00;;;;;20.34;71.97;100214.72;5056211;28;45329;-81
2022/06/23 05:18:53;;;;;;;;;3.00;3.00;;;;;20.39;72.05;100226.88;5072169;28;45414;-78
2022/06/23 05:21:28;;;;;;;;;1.25;1.25;;;;;20.48;71.85;100233.47;5071816;28;45538;-78
2022/06/23 05:23:59;;;;;;;;;2.00;1.00;;;;;20.48;71.72;100230.78;5075779;28;45511;-81
2022/06/23 05:26:36;;;;;;;;;2.50;2.00;;;;;20.56;71.20;100238.31;5076185;28;45546;-82
2022/06/23 05:29:11;;;;;;;;;2.75;2.00;;;;;20.54;70.57;100225.00;5076189;28;45452;-82
2022/06/23 05:31:40;;;;;;;;;3.75;2.50;;;;;20.80;70.24;100240.31;5056901;28;45503;-79
2022/06/23 05:34:12;;;;;;;;;4.00;3.00;;;;;21.14;68.41;100221.91;5091013;27;45351;-78
2022/06/23 05:37:12;;;;;;;;;2.50;2.50;;;;;21.64;66.57;100236.31;5096331;27;45444;-76
2022/06/23 05:40:10;;;;;;;;;1.50;1.50;;;;;21.71;65.82;100204.44;5094632;27;45657;-78
2022/06/23 05:42:42;;;;;;;;;2.00;1.00;;;;;21.71;64.57;100197.25;5095143;27;45359;-78
2022/06/23 05:45:21;;;;;;;;;2.00;2.00;;;;;22.06;64.11;100218.03;5075317;27;45454;-77
2022/06/23 05:47:47;;;;;;;;;5.25;3.00;;;;;22.26;62.67;100223.72;5076246;27;45580;-78
2022/06/23 05:50:19;;;;;;;;;2.75;2.75;;;;;22.45;63.18;100215.19;5091339;27;46509;-77
2022/06/23 05:53:05;;;;;;;;;2.50;2.50;;;;;23.59;59.44;100214.44;5086696;27;45426;-77
2022/06/23 05:55:43;;;;;;;;;6.00;2.50;;;;;24.79;56.12;100212.69;5074533;27;45416;-80
2022/06/23 05:58:21;;;;;;;;;2.00;1.50;;;;;25.84;53.21;100213.50;5083176;27;45580;-76
2022/06/23 06:01:00;;;;;;;;;3.50;3.00;;;;;26.36;50.21;100192.53;5096818;27;45822;-81
2022/06/23 06:03:38;;;;;;;;;2.00;2.00;;;;;26.22;50.58;100201.06;5098738;27;45239;-81
2022/06/23 06:06:05;;;;;;;;;3.50;3.00;;;;;26.17;49.88;100197.94;5113116;27;45442;-80
2022/06/23 06:11:51;;;;;;;;;4.75;3.75;;;;;26.04;50.01;100212.59;5053187;28;45445;-81
2022/06/23 06:14:24;;;;;;;;;1.75;1.75;;;;;25.74;49.71;100220.75;5055359;28;45529;-81
2022/06/23 06:16:52;;;;;;;;;3.50;3.50;;;;;25.91;50.31;100217.38;5054431;28;45477;-82
2022/06/23 06:19:21;;;;;;;;;2.50;2.50;;;;;26.02;49.73;100190.19;5053944;28;45434;-81
2022/06/23 06:21:48;;;;;;;;;4.25;1.50;;;;;26.17;49.76;100214.19;5054176;28;46041;-82
2022/06/23 06:24:45;;;;;;;;;3.50;2.50;;;;;26.08;50.05;100215.03;5039712;28;45408;-81
2022/06/23 06:27:12;;;;;;;;;3.00;3.00;;;;;25.83;49.56;100185.59;5027304;28;45600;-82
2022/06/23 06:29:42;;;;;;;;;4.75;3.25;;;;;26.01;49.43;100193.94;5055274;28;45471;-81
2022/06/23 06:32:13;;;;;;;;;2.00;2.00;;;;;26.72;48.42;100197.38;5037620;28;45527;-81
2022/06/23 06:34:45;;;;;;;;;3.00;3.00;;;;;27.56;46.10;100190.31;5053324;28;45599;-82
2022/06/23 06:37:15;;;;;;;;;5.50;3.50;;;;;28.19;44.35;100187.66;5053902;28;45515;-81
2022/06/23 06:39:50;;;;;;;;;5.00;4.00;;;;;28.79;43.29;100188.91;5054111;28;45478;-80
2022/06/23 06:42:22;;;;;;;;;2.75;2.00;;;;;29.82;42.22;100199.06;5034431;28;47150;-82
2022/06/23 06:44:51;;;;;;;;;3.75;3.75;;;;;30.43;40.03;100190.72;5052461;28;45598;-81
2022/06/23 06:47:22;;;;;;;;;2.00;1.50;;;;;30.87;39.51;100178.56;5068907;27;45421;-82
2022/06/23 06:49:48;;;;;;;;;2.75;2.75;;;;;31.60;37.97;100193.09;5094262;27;45531;-79
2022/06/23 06:52:14;;;;;;;;;1.00;1.00;;;;;32.03;36.47;100185.38;5094956;27;46178;-81
2022/06/23 06:55:08;;;;;;;;;4.00;4.00;;;;;32.46;35.35;100198.59;5096152;27;45563;-82
2022/06/23 06:57:46;;;;;;;;;2.75;2.75;;;;;32.97;34.04;100203.50;5098149;27;45699;-82
2022/06/23 07:00:20;;;;;;;;;3.00;3.00;;;;;33.16;34.38;100196.63;5100058;27;45735;-82
2022/06/23 07:02:54;;;;;;;;;3.50;2.50;;;;;33.76;32.93;100213.94;5095255;27;46327;-81
2022/06/23 07:05:50;;;;;;;;;2.00;2.00;;;;;34.03;32.42;100214.25;5094627;27;45513;-82
2022/06/23 07:08:27;;;;;;;;;2.75;2.75;;;;;34.30;31.94;100198.97;5095519;27;45444;-82
2022/06/23 07:11:11;;;;;;;;;3.00;3.00;;;;;34.81;31.67;100193.34;5097053;27;45482;-83
2022/06/23 07:13:46;;;;;;;;;2.00;2.00;;;;;34.96;30.84;100192.44;5095900;27;46378;-82
2022/06/23 07:16:35;;;;;;;;;2.75;2.00;;;;;35.13;30.77;100207.53;5095374;27;45498;-83
2022/06/23 07:19:14;;;;;;;;;2.00;2.00;;;;;35.13;30.34;100214.91;5095660;27;45476;-81
2022/06/23 07:21:52;;;;;;;;;2.25;2.00;;;;;35.25;30.16;100210.56;5096123;27;45418;-82
2022/06/23 07:24:29;;;;;;;;;2.75;2.75;;;;;35.48;29.88;100213.03;5096784;27;45652;-82
2022/06/23 07:26:54;;;;;;;;;2.00;2.00;;;;;35.84;29.68;100216.66;5097295;27;45490;-82
2022/06/23 07:29:37;;;;;;;;;3.00;3.00;;;;;36.18;28.21;100212.94;5099621;27;45420;-81
2022/06/23 07:32:18;;;;;;;;;2.00;2.00;;;;;36.34;28.89;100213.66;5094843;27;45410;-81
2022/06/23 07:34:52;;;;;;;;;2.00;2.00;;;;;36.39;28.94;100219.34;5096283;27;46337;-81
2022/06/23 07:37:30;;;;;;;;;4.00;4.00;;;;;36.54;28.53;100184.25;5094757;27;45421;-82
2022/06/23 07:40:04;;;;;;;;;3.00;3.00;;;;;37.02;27.93;100223.63;5099974;27;45482;-81
2022/06/23 07:42:53;;;;;;;;;6.00;4.00;;;;;37.36;26.94;100216.22;5098712;27;45419;-82
2022/06/23 07:45:30;;;;;;;;;2.25;2.00;;;;;37.71;27.64;100221.44;5096599;27;46196;-83
2022/06/23 07:47:56;;;;;;;;;3.00;2.00;;;;;37.63;27.37;100226.09;5100036;27;45526;-83
2022/06/23 07:50:21;;;;;;;;;3.00;3.00;;;;;37.89;26.90;100221.56;5101245;27;45386;-81
2022/06/23 07:52:48;;;;;;;;;2.75;2.75;;;;;37.85;27.12;100220.28;5100652;27;45363;-82
2022/06/23 07:55:26;;;;;;;;;2.50;2.50;;;;;37.74;26.98;100227.34;5102092;27;46323;-83
2022/06/23 07:57:53;;;;;;;;;4.00;4.00;;;;;37.91;28.00;100193.78;5103240;27;45551;-82
2022/06/23 08:00:19;;;;;;;;;7.00;3.00;;;;;38.43;27.14;100216.59;5099114;27;45486;-81
2022/06/23 08:03:00;;;;;;;;;2.00;2.00;;;;;38.49;26.51;100212.09;5106731;27;45478;-81
2022/06/23 08:05:39;;;;;;;;;2.75;2.75;;;;;38.26;26.65;100208.00;5103543;27;45955;-82
2022/06/23 08:08:07;;;;;;;;;3.50;3.25;;;;;38.40;25.87;100203.25;5096964;27;45371;-81
2022/06/23 08:10:34;;;;;;;;;4.25;4.25;;;;;38.35;25.96;100209.44;5101432;27;45413;-81
2022/06/23 08:13:11;;;;;;;;;3.00;3.00;;;;;38.48;26.53;100216.78;5098013;27;45511;-81
2022/06/23 08:18:46;;;;;;;;;3.50;3.00;;;;;38.94;26.72;100211.97;5097563;27;45482;-83
2022/06/23 08:21:20;;;;;;;;;3.75;3.75;;;;;38.98;24.91;100215.97;5097779;27;45275;-82
2022/06/23 08:23:59;;;;;;;;;3.25;3.25;;;;;38.56;25.49;100218.41;5098528;27;45423;-81
2022/06/23 08:26:26;;;;;;;;;4.00;3.25;;;;;38.55;25.86;100217.59;5098933;27;45604;-81
2022/06/23 08:28:55;;;;;;;;;3.00;3.00;;;;;38.33;25.97;100211.56;5079104;27;45363;-81
2022/06/23 08:31:21;;;;;;;;;3.00;2.75;;;;;38.39;25.40;100212.59;5077661;27;45380;-82
2022/06/23 08:33:47;;;;;;;;;3.00;3.00;;;;;38.44;25.79;100206.41;5077780;27;45498;-81
2022/06/23 08:36:19;;;;;;;;;3.75;3.75;;;;;38.50;24.92;100206.34;5078322;27;45572;-81
2022/06/23 08:38:50;;;;;;;;;5.50;3.25;;;;;38.63;25.62;100218.34;5076147;27;45419;-81
2022/06/23 08:41:29;;;;;;;;;4.00;4.00;;;;;38.82;24.58;100216.56;5079482;27;45324;-81
2022/06/23 08:44:13;;;;;;;;;3.00;3.00;;;;;39.06;24.15;100223.97;5076818;27;45408;-81
2022/06/23 08:46:57;;;;;;;;;5.75;4.00;;;;;38.41;25.50;100224.25;5075531;28;47633;-81
2022/06/23 08:49:36;;;;;;;;;3.50;3.50;;;;;38.28;26.43;100210.53;5076085;28;45517;-82
2022/06/23 08:52:12;;;;;;;;;2.00;2.00;;;;;38.67;24.75;100214.94;5087149;27;45309;-82
2022/06/23 08:55:06;;;;;;;;;3.00;3.00;;;;;38.20;25.42;100222.69;5100437;27;45446;-81
2022/06/23 08:57:53;;;;;;;;;3.00;3.00;;;;;37.77;26.37;100215.88;5098947;27;45451;-81
2022/06/23 09:00:34;;;;;;;;;3.00;3.00;;;;;38.18;24.93;100216.56;5098492;27;45560;-81
2022/06/23 09:03:10;;;;;;;;;5.50;3.25;;;;;38.08;26.15;100221.66;5098783;27;45498;-83
2022/06/23 09:05:49;;;;;;;;;5.50;5.50;;;;;38.29;25.05;100221.34;5098968;27;45419;-82
2022/06/23 09:08:32;;;;;;;;;3.00;3.00;;;;;37.73;25.72;100200.00;5101723;27;45733;-82
2022/06/23 09:11:25;;;;;;;;;4.00;4.00;;;;;37.93;25.64;100219.19;5098649;27;45503;-81
2022/06/23 09:14:16;;;;;;;;;2.25;2.25;;;;;37.51;25.47;100216.81;5096451;27;45350;-81
2022/06/23 09:17:04;;;;;;;;;2.50;2.50;;;;;37.41;26.75;100216.41;5098059;27;45380;-82
2022/06/23 09:20:04;;;;;;;;;3.00;2.00;;;;;38.00;26.18;100220.84;5098217;27;46228;-82
2022/06/23 09:22:42;;;;;;;;;3.00;3.00;;;;;37.77;25.77;100193.00;5095568;27;45460;-81
2022/06/23 09:25:26;;;;;;;;;4.50;4.50;;;;;38.02;25.92;100218.75;5101581;27;45365;-82
2022/06/23 09:28:19;;;;;;;;;4.00;4.00;;;;;38.70;26.31;100203.47;5097929;27;45490;-81
2022/06/23 09:31:19;;;;;;;;;3.75;3.75;;;;;39.19;24.42;100205.59;5096482;27;45941;-81
2022/06/23 09:33:57;;;;;;;;;4.00;4.00;;;;;39.39;24.96;100205.41;5095441;27;45373;-81
2022/06/23 09:36:41;;;;;;;;;2.75;2.75;;;;;39.25;25.01;100201.91;5095923;27;45467;-82
2022/06/23 09:39:21;;;;;;;;;2.75;2.50;;;;;39.59;24.82;100194.97;5096267;27;45863;-82
2022/06/23 09:41:54;;;;;;;;;3.25;3.25;;;;;39.74;23.79;100197.34;5098753;27;46320;-82
2022/06/23 09:44:30;;;;;;;;;4.25;3.00;;;;;39.52;24.29;100194.16;5096140;27;45388;-81
2022/06/23 09:47:06;;;;;;;;;5.00;2.00;;;;;38.87;24.70;100198.25;5096354;27;45386;-81
2022/06/23 09:49:51;;;;;;;;;3.25;3.25;;;;;38.57;24.89;100200.81;5095371;27;45450;-82
2022/06/23 09:52:16;;;;;;;;;4.00;4.00;;;;;38.61;25.44;100207.53;5096142;27;45535;-82
2022/06/23 09:55:18;;;;;;;;;4.00;4.00;;;;;38.55;25.30;100192.75;5096923;27;45599;-82
2022/06/23 09:58:18;;;;;;;;;4.75;3.00;;;;;38.20;25.22;100198.72;5097740;27;45501;-80
2022/06/23 10:01:20;;;;;;;;;3.00;3.00;;;;;37.82;25.82;100206.94;5099456;27;45395;-83
2022/06/23 10:03:58;;;;;;;;;3.50;3.00;;;;;37.20;26.30;100214.72;5101960;27;45570;-82
2022/06/23 10:06:51;;;;;;;;;3.00;3.00;;;;;37.29;26.67;100211.56;5096883;27;45381;-82
2022/06/23 10:09:41;;;;;;;;;2.00;2.00;;;;;37.12;26.91;100202.03;5096191;27;45383;-81
2022/06/23 10:12:33;;;;;;;;;4.75;4.75;;;;;36.83;27.46;100206.94;5097131;27;45402;-82
2022/06/23 10:15:16;;;;;;;;;3.00;3.00;;;;;36.85;27.06;100210.31;5096413;27;46581;-83
2022/06/23 10:17:47;;;;;;;;;4.25;4.25;;;;;36.91;27.28;100205.88;5095911;27;45508;-82
2022/06/23 10:20:18;;;;;;;;;3.00;3.00;;;;;36.13;27.38;100206.38;5094371;27;45488;-82
2022/06/23 10:22:58;;;;;;;;;7.50;5.00;;;;;35.23;29.30;100216.25;5098127;27;45369;-81
2022/06/23 10:25:36;;;;;;;;;5.50;4.50;;;;;35.39;30.31;100198.66;5096133;27;46305;-83
2022/06/23 10:28:32;;;;;;;;;5.00;5.00;;;;;35.61;29.20;100208.66;5097119;27;45433;-82
2022/06/23 10:31:17;;;;;;;;;7.00;7.00;;;;;35.55;28.50;100210.34;5095849;27;45398;-82
2022/06/23 10:33:57;;;;;;;;;7.00;6.50;;;;;35.86;29.43;100200.78;5094484;27;45320;-82
2022/06/23 10:36:54;;;;;;;;;5.50;5.50;;;;;35.61;28.48;100195.81;5095174;27;45614;-82
2022/06/23 10:39:44;;;;;;;;;4.25;3.50;;;;;35.82;29.18;100194.00;5096285;27;45373;-82
2022/06/23 10:42:26;;;;;;;;;5.50;5.50;;;;;35.64;28.68;100189.03;5096459;27;45470;-80
2022/06/23 10:45:09;;;;;;;;;2.75;2.75;;;;;35.55;28.25;100197.47;5095029;27;45389;-82
2022/06/23 10:47:47;;;;;;;;;3.75;3.75;;;;;35.33;28.94;100193.97;5093939;27;47633;-81
2022/06/23 10:50:25;;;;;;;;;4.75;4.75;;;;;35.53;29.15;100185.84;5097385;27;45463;-83
2022/06/23 10:53:00;;;;;;;;;4.00;4.00;;;;;35.31;28.89;100185.06;5096522;27;45502;-81
2022/06/23 10:55:29;;;;;;;;;4.25;4.25;;;;;35.62;28.35;100183.75;5095995;27;45560;-81
2022/06/23 10:58:24;;;;;;;;;6.50;4.25;;;;;36.11;27.72;100190.94;5096257;27;46488;-82
2022/06/23 11:01:08;;;;;;;;;3.00;3.00;;;;;36.13;26.78;100176.13;5095906;27;45409;-83
2022/06/23 11:03:57;;;;;;;;;3.75;3.75;;;;;35.77;27.58;100180.88;5095093;27;45551;-82
2022/06/23 11:06:28;;;;;;;;;4.00;3.50;;;;;35.27;27.75;100185.69;5110427;27;45433;-81
2022/06/23 11:09:11;;;;;;;;;3.25;3.25;;;;;35.48;28.91;100184.75;5094728;27;46507;-81
2022/06/23 11:11:48;;;;;;;;;4.75;4.75;;;;;36.15;27.63;100177.59;5094494;27;45969;-82
2022/06/23 11:15:03;;;;;;;;;4.00;3.75;;;;;36.27;27.81;100184.25;5094515;27;45534;-81
2022/06/23 11:17:39;;;;;;;;;3.00;3.00;;;;;36.79;26.00;100175.38;5074686;28;45549;-81
2022/06/23 11:20:22;;;;;;;;;2.50;2.50;;;;;37.26;26.06;100170.69;5075959;28;45510;-82
2022/06/23 11:22:59;;;;;;;;;6.25;3.50;;;;;37.25;26.00;100169.00;5075680;28;45673;-82
2022/06/23 11:25:36;;;;;;;;;5.75;4.25;;;;;37.01;25.53;100150.38;5075849;28;45535;-82
2022/06/23 11:28:18;;;;;;;;;5.00;4.00;;;;;37.20;25.30;100152.25;5078105;28;45468;-81
2022/06/23 11:31:11;;;;;;;;;4.50;4.50;;;;;37.47;26.06;100163.19;5077501;28;45587;-82
2022/06/23 11:34:04;;;;;;;;;4.00;4.00;;;;;37.82;25.61;100157.34;5074617;28;45475;-83
2022/06/23 11:36:35;;;;;;;;;6.25;3.00;;;;;38.00;25.49;100160.19;5075620;28;45455;-81
2022/06/23 11:39:09;;;;;;;;;3.25;2.00;;;;;37.54;24.87;100150.25;5075709;28;45576;-82
2022/06/23 11:41:37;;;;;;;;;3.00;3.00;;;;;37.00;25.75;100149.53;5074963;28;46137;-81
2022/06/23 11:44:47;;;;;;;;;4.00;4.00;;;;;37.14;26.56;100140.19;5076592;28;45524;-81
2022/06/23 11:47:31;;;;;;;;;4.00;4.00;;;;;37.44;24.73;100142.44;5066515;28;45503;-82
2022/06/23 11:50:10;;;;;;;;;2.25;2.25;;;;;37.66;24.84;100145.72;5076812;28;45408;-81
2022/06/23 11:53:07;;;;;;;;;3.00;3.00;;;;;37.64;24.56;100145.13;5075643;28;45644;-81
2022/06/23 11:55:43;;;;;;;;;3.00;3.00;;;;;37.49;25.37;100144.53;5079275;27;45489;-82
2022/06/23 11:59:06;;;;;;;;;4.25;3.50;;;;;37.23;25.26;100143.59;5092426;28;45345;-81
2022/06/23 12:01:32;;;;;;;;;4.25;4.25;;;;;36.31;26.35;100134.31;5060659;28;45510;-82
2022/06/23 12:04:25;;;;;;;;;5.50;5.00;;;;;36.13;26.55;100127.47;5062773;28;46427;-81
2022/06/23 12:07:12;;;;;;;;;4.00;4.00;;;;;36.11;26.29;100129.59;5065075;28;45504;-82
2022/06/23 12:10:04;;;;;;;;;4.00;3.50;;;;;35.92;26.32;100125.75;5055767;28;45523;-82
2022/06/23 12:12:33;;;;;;;;;3.00;3.00;;;;;35.36;27.16;100124.06;5036563;28;70745;-82
2022/06/23 12:15:02;;;;;;;;;3.75;3.75;;;;;34.90;27.12;100110.91;5053949;28;45455;-82
2022/06/23 12:17:32;;;;;;;;;3.00;3.00;;;;;34.35;28.19;100092.31;5058265;28;45393;-83
2022/06/23 12:20:16;;;;;;;;;4.50;4.50;;;;;34.50;28.64;100109.53;5055518;28;45505;-82
2022/06/23 12:22:57;;;;;;;;;4.50;4.50;;;;;34.41;28.67;100086.06;5055466;28;45495;-81
2022/06/23 12:25:44;;;;;;;;;4.00;4.00;;;;;34.38;28.60;100094.66;5055079;28;45433;-82